Time,TemperatureF,DewpointF,PressureIn,WindDirection,WindDirectionDegrees,WindSpeedMPH,WindSpeedGustMPH,Humidity,HourlyPrecipIn,Conditions,Clouds,dailyrainin,SoftwareType,DateUTC
2013-09-10 00:02:00,64.9,62.2,30.10,East,98,0.0,0.0,91,0.00,,,0.00,meteohub,2013-09-10 04:02:00,
2013-09-10 00:05:00,64.8,62.1,30.10,East,98,0.0,0.0,91,0.00,,,0.00,meteohub,2013-09-10 04:05:00,
2013-09-10 00:11:00,64.8,61.7,30.10,East,98,0.0,0.0,90,0.00,,,0.00,meteohub,2013-09-10 04:11:00,
2013-09-10 00:17:00,64.8,61.7,30.10,East,98,0.0,0.0,90,0.00,,,0.00,meteohub,2013-09-10 04:17:00,
2013-09-10 00:22:00,64.8,61.7,30.10,East,98,0.0,0.0,90,0.00,,,0.00,meteohub,2013-09-10 04:22:00,
2013-09-10 00:27:00,64.8,61.7,30.10,East,98,0.0,0.0,90,0.00,,,0.00,meteohub,2013-09-10 04:27:00,
2013-09-10 00:32:00,64.8,61.7,30.10,SSE,153,0.0,0.0,90,0.00,,,0.00,meteohub,2013-09-10 04:32:00,
2013-09-10 00:37:00,64.6,61.9,30.10,SE,128,0.0,1.0,91,0.00,,,0.00,meteohub,2013-09-10 04:37:00,
2013-09-10 00:42:00,64.6,61.9,30.10,SE,129,0.0,1.0,91,0.00,,,0.00,meteohub,2013-09-10 04:42:00,
2013-09-10 00:47:00,64.6,62.2,30.09,SE,131,0.0,1.0,92,0.00,,,0.00,meteohub,2013-09-10 04:47:00,
2013-09-10 00:52:00,64.4,62.1,30.09,ESE,118,0.0,1.0,92,0.00,,,0.00,meteohub,2013-09-10 04:52:00,
2013-09-10 00:57:00,64.2,61.9,30.09,ESE,117,0.0,0.0,92,0.00,,,0.00,meteohub,2013-09-10 04:57:00,
2013-09-10 01:03:00,64.2,61.9,30.10,NNW,336,2.0,0.0,92,0.00,,,0.00,meteohub,2013-09-10 05:03:00,
2013-09-10 01:09:00,63.7,61.3,30.10,NNW,336,0.0,2.0,92,0.00,,,0.00,meteohub,2013-09-10 05:09:00,
2013-09-10 01:15:00,63.5,61.5,30.09,NNW,337,0.0,2.0,93,0.00,,,0.00,meteohub,2013-09-10 05:15:00,
2013-09-10 01:21:00,63.3,61.3,30.09,NNW,337,0.0,1.0,93,0.00,,,0.00,meteohub,2013-09-10 05:21:00,
2013-09-10 01:27:00,63.3,61.5,30.09,NNW,337,0.0,0.0,94,0.00,,,0.00,meteohub,2013-09-10 05:27:00,
2013-09-10 01:32:00,63.3,61.5,30.10,NNW,337,1.0,1.0,94,0.00,,,0.00,meteohub,2013-09-10 05:32:00,
2013-09-10 01:37:00,63.3,61.5,30.10,NNW,337,0.0,2.0,94,0.00,,,0.00,meteohub,2013-09-10 05:37:00,
2013-09-10 01:42:00,63.3,61.5,30.10,NNW,337,0.0,2.0,94,0.00,,,0.00,meteohub,2013-09-10 05:42:00,
2013-09-10 01:47:00,63.3,61.5,30.11,NNW,337,0.0,2.0,94,0.00,,,0.00,meteohub,2013-09-10 05:47:00,
2013-09-10 01:52:00,63.3,61.5,30.11,NNW,337,0.0,0.0,94,0.00,,,0.00,meteohub,2013-09-10 05:52:00,
2013-09-10 01:57:00,63.1,61.3,30.11,NNW,340,0.0,0.0,94,0.00,,,0.00,meteohub,2013-09-10 05:57:00,
2013-09-10 02:02:00,63.1,61.3,30.11,NNW,340,0.0,0.0,94,0.00,,,0.00,meteohub,2013-09-10 06:02:00,
2013-09-10 02:07:00,63.1,61.3,30.11,NNW,340,0.0,0.0,94,0.00,,,0.00,meteohub,2013-09-10 06:07:00,
2013-09-10 02:12:00,63.1,61.7,30.10,NNW,340,0.0,0.0,95,0.00,,,0.00,meteohub,2013-09-10 06:12:00,
2013-09-10 02:17:00,63.3,61.9,30.10,NNW,340,0.0,0.0,95,0.00,,,0.00,meteohub,2013-09-10 06:17:00,
2013-09-10 02:22:00,63.3,61.9,30.09,NNW,340,0.0,0.0,95,0.00,,,0.00,meteohub,2013-09-10 06:22:00,
2013-09-10 02:27:00,63.5,62.1,30.09,SSW,194,0.0,0.0,95,0.00,,,0.00,meteohub,2013-09-10 06:27:00,
2013-09-10 02:32:00,63.7,62.2,30.09,SSW,194,0.0,0.0,95,0.00,,,0.00,meteohub,2013-09-10 06:32:00,
2013-09-10 02:37:00,63.7,62.2,30.09,SE,141,0.0,0.0,95,0.00,,,0.00,meteohub,2013-09-10 06:37:00,
2013-09-10 02:42:00,63.9,62.4,30.10,SE,141,0.0,1.0,95,0.00,,,0.00,meteohub,2013-09-10 06:42:00,
2013-09-10 02:47:00,63.7,61.9,30.10,NW,306,0.0,1.0,94,0.00,,,0.00,meteohub,2013-09-10 06:47:00,
2013-09-10 02:52:00,63.5,61.7,30.10,NW,306,0.0,2.0,94,0.00,,,0.00,meteohub,2013-09-10 06:52:00,
2013-09-10 02:57:00,63.3,61.5,30.09,NW,306,0.0,2.0,94,0.00,,,0.00,meteohub,2013-09-10 06:57:00,
2013-09-10 03:02:00,63.1,61.3,30.09,NW,306,0.0,1.0,94,0.00,,,0.00,meteohub,2013-09-10 07:02:00,
2013-09-10 03:07:00,63.1,61.3,30.09,NW,306,0.0,0.0,94,0.00,,,0.00,meteohub,2013-09-10 07:07:00,
2013-09-10 03:12:00,63.0,61.2,30.09,NW,306,0.0,1.0,94,0.00,,,0.00,meteohub,2013-09-10 07:12:00,
2013-09-10 03:17:00,63.0,61.5,30.09,NW,306,0.0,1.0,95,0.00,,,0.00,meteohub,2013-09-10 07:17:00,
2013-09-10 03:22:00,63.0,61.5,30.10,NW,306,0.0,1.0,95,0.00,,,0.00,meteohub,2013-09-10 07:22:00,
2013-09-10 03:27:00,63.0,61.5,30.09,NW,306,0.0,1.0,95,0.00,,,0.00,meteohub,2013-09-10 07:27:00,
2013-09-10 03:34:00,62.8,61.3,30.09,ESE,119,0.0,1.0,95,0.00,,,0.00,meteohub,2013-09-10 07:34:00,
2013-09-10 03:40:00,62.8,61.3,30.09,ESE,119,0.0,1.0,95,0.00,,,0.00,meteohub,2013-09-10 07:40:00,
2013-09-10 03:46:00,62.8,61.3,30.09,NNE,24,1.0,1.0,95,0.00,,,0.00,meteohub,2013-09-10 07:46:00,
2013-09-10 03:52:00,62.8,61.3,30.10,NNE,24,0.0,2.0,95,0.00,,,0.00,meteohub,2013-09-10 07:52:00,
2013-09-10 03:57:00,62.8,61.3,30.10,ENE,67,0.0,2.0,95,0.00,,,0.00,meteohub,2013-09-10 07:57:00,
2013-09-10 04:02:00,62.6,61.2,30.09,ENE,76,0.0,2.0,95,0.00,,,0.00,meteohub,2013-09-10 08:02:00,
2013-09-10 04:07:00,62.4,61.0,30.09,ENE,76,0.0,1.0,95,0.00,,,0.00,meteohub,2013-09-10 08:07:00,
2013-09-10 04:12:00,62.6,61.2,30.09,ENE,75,0.0,1.0,95,0.00,,,0.00,meteohub,2013-09-10 08:12:00,
2013-09-10 04:17:00,62.8,61.7,30.09,ENE,75,0.0,1.0,96,0.00,,,0.00,meteohub,2013-09-10 08:17:00,
2013-09-10 04:22:00,63.0,61.9,30.09,ENE,75,0.0,1.0,96,0.00,,,0.00,meteohub,2013-09-10 08:22:00,
2013-09-10 04:27:00,63.0,61.9,30.09,East,87,0.0,1.0,96,0.00,,,0.00,meteohub,2013-09-10 08:27:00,
2013-09-10 04:32:00,63.0,61.9,30.09,East,87,0.0,1.0,96,0.00,,,0.00,meteohub,2013-09-10 08:32:00,
2013-09-10 04:37:00,63.1,62.1,30.09,East,87,0.0,1.0,96,0.00,,,0.00,meteohub,2013-09-10 08:37:00,
2013-09-10 04:42:00,63.1,62.1,30.09,East,87,1.0,1.0,96,0.00,,,0.00,meteohub,2013-09-10 08:42:00,
2013-09-10 04:47:00,63.0,61.5,30.09,East,87,0.0,1.0,95,0.00,,,0.00,meteohub,2013-09-10 08:47:00,
2013-09-10 04:52:00,63.0,61.5,30.09,East,87,0.0,1.0,95,0.00,,,0.00,meteohub,2013-09-10 08:52:00,
2013-09-10 04:57:00,62.8,61.3,30.09,East,87,0.0,1.0,95,0.00,,,0.00,meteohub,2013-09-10 08:57:00,
2013-09-10 05:02:00,62.6,61.2,30.10,East,87,0.0,1.0,95,0.00,,,0.00,meteohub,2013-09-10 09:02:00,
2013-09-10 05:07:00,62.4,61.0,30.10,East,87,0.0,1.0,95,0.00,,,0.00,meteohub,2013-09-10 09:07:00,
2013-09-10 05:12:00,62.4,61.0,30.10,ENE,76,0.0,1.0,95,0.00,,,0.00,meteohub,2013-09-10 09:12:00,
2013-09-10 05:17:00,62.4,61.0,30.10,ENE,76,0.0,2.0,95,0.00,,,0.00,meteohub,2013-09-10 09:17:00,
2013-09-10 05:22:00,62.4,61.3,30.10,ENE,76,0.0,2.0,96,0.00,,,0.00,meteohub,2013-09-10 09:22:00,
2013-09-10 05:27:00,62.6,61.5,30.10,ENE,76,0.0,2.0,96,0.00,,,0.00,meteohub,2013-09-10 09:27:00,
2013-09-10 05:32:00,62.6,61.5,30.11,ENE,76,0.0,0.0,96,0.00,,,0.00,meteohub,2013-09-10 09:32:00,
2013-09-10 05:37:00,62.6,61.5,30.10,ENE,76,0.0,0.0,96,0.00,,,0.00,meteohub,2013-09-10 09:37:00,
2013-09-10 05:42:00,62.6,61.5,30.11,ENE,76,0.0,0.0,96,0.00,,,0.00,meteohub,2013-09-10 09:42:00,
2013-09-10 05:47:00,62.6,61.5,30.11,ENE,76,0.0,0.0,96,0.00,,,0.00,meteohub,2013-09-10 09:47:00,
2013-09-10 05:52:00,62.6,61.5,30.11,ENE,76,0.0,0.0,96,0.00,,,0.00,meteohub,2013-09-10 09:52:00,
2013-09-10 05:57:00,62.8,61.7,30.11,ENE,76,0.0,0.0,96,0.00,,,0.00,meteohub,2013-09-10 09:57:00,
2013-09-10 06:02:00,62.6,61.5,30.12,ENE,76,0.0,0.0,96,0.00,,,0.00,meteohub,2013-09-10 10:02:00,
2013-09-10 06:07:00,62.6,61.5,30.12,ENE,76,0.0,0.0,96,0.00,,,0.00,meteohub,2013-09-10 10:07:00,
2013-09-10 06:12:00,62.6,61.5,30.12,ENE,76,0.0,0.0,96,0.00,,,0.00,meteohub,2013-09-10 10:12:00,
2013-09-10 06:17:00,62.6,61.5,30.12,ENE,76,0.0,0.0,96,0.00,,,0.00,meteohub,2013-09-10 10:17:00,
2013-09-10 06:22:00,62.6,61.5,30.12,ENE,76,0.0,0.0,96,0.00,,,0.00,meteohub,2013-09-10 10:22:00,
2013-09-10 06:27:00,62.6,61.5,30.13,ENE,76,0.0,0.0,96,0.00,,,0.00,meteohub,2013-09-10 10:27:00,
2013-09-10 06:32:00,62.4,61.3,30.13,ENE,76,0.0,1.0,96,0.00,,,0.00,meteohub,2013-09-10 10:32:00,
2013-09-10 06:37:00,62.2,61.2,30.13,ENE,76,0.0,1.0,96,0.00,,,0.00,meteohub,2013-09-10 10:37:00,
2013-09-10 06:42:00,62.1,60.6,30.13,ENE,76,0.0,1.0,95,0.00,,,0.00,meteohub,2013-09-10 10:42:00,
2013-09-10 06:47:00,62.1,61.0,30.13,ENE,76,0.0,1.0,96,0.00,,,0.00,meteohub,2013-09-10 10:47:00,
2013-09-10 06:52:00,62.1,61.0,30.13,ENE,76,0.0,1.0,96,0.00,,,0.00,meteohub,2013-09-10 10:52:00,
2013-09-10 06:59:00,61.9,60.8,30.14,ENE,76,0.0,1.0,96,0.00,,,0.00,meteohub,2013-09-10 10:59:00,
2013-09-10 07:05:00,61.9,60.8,30.14,ENE,76,0.0,0.0,96,0.00,,,0.00,meteohub,2013-09-10 11:05:00,
2013-09-10 07:11:00,61.9,60.8,30.14,ENE,76,0.0,0.0,96,0.00,,,0.00,meteohub,2013-09-10 11:11:00,
2013-09-10 07:17:00,61.7,60.6,30.14,ENE,76,0.0,0.0,96,0.00,,,0.00,meteohub,2013-09-10 11:17:00,
2013-09-10 07:22:00,61.7,60.6,30.14,ENE,76,0.0,0.0,96,0.00,,,0.00,meteohub,2013-09-10 11:22:00,
2013-09-10 07:27:00,61.7,60.6,30.14,ENE,76,0.0,0.0,96,0.00,,,0.00,meteohub,2013-09-10 11:27:00,
2013-09-10 07:32:00,61.7,60.6,30.14,ENE,76,0.0,0.0,96,0.00,,,0.00,meteohub,2013-09-10 11:32:00,
2013-09-10 07:37:00,61.9,60.8,30.14,ESE,109,0.0,0.0,96,0.00,,,0.00,meteohub,2013-09-10 11:37:00,
2013-09-10 07:42:00,62.1,61.0,30.14,ESE,109,0.0,1.0,96,0.00,,,0.00,meteohub,2013-09-10 11:42:00,
2013-09-10 07:47:00,62.2,61.2,30.14,SE,134,1.0,1.0,96,0.00,,,0.00,meteohub,2013-09-10 11:47:00,
2013-09-10 07:52:00,62.2,61.2,30.14,SSE,165,0.0,2.0,96,0.00,,,0.00,meteohub,2013-09-10 11:52:00,
2013-09-10 07:57:00,62.4,61.3,30.14,SE,142,0.0,2.0,96,0.00,,,0.00,meteohub,2013-09-10 11:57:00,
2013-09-10 08:02:00,62.6,61.5,30.14,SE,135,1.0,2.0,96,0.00,,,0.00,meteohub,2013-09-10 12:02:00,
2013-09-10 08:07:00,63.0,61.9,30.14,SE,135,0.0,2.0,96,0.00,,,0.00,meteohub,2013-09-10 12:07:00,
2013-09-10 08:12:00,63.0,61.9,30.14,SE,135,0.0,1.0,96,0.00,,,0.00,meteohub,2013-09-10 12:12:00,
2013-09-10 08:17:00,63.1,62.1,30.14,SSE,151,0.0,1.0,96,0.00,,,0.00,meteohub,2013-09-10 12:17:00,
2013-09-10 08:24:00,63.7,62.6,30.14,SSE,151,0.0,1.0,96,0.00,,,0.00,meteohub,2013-09-10 12:24:00,
2013-09-10 08:30:00,63.9,62.8,30.14,SSE,151,0.0,1.0,96,0.00,,,0.00,meteohub,2013-09-10 12:30:00,
2013-09-10 08:36:00,64.4,63.3,30.14,SSE,151,0.0,0.0,96,0.00,,,0.00,meteohub,2013-09-10 12:36:00,
2013-09-10 08:42:00,64.9,63.9,30.14,SSE,151,0.0,1.0,96,0.00,,,0.00,meteohub,2013-09-10 12:42:00,
2013-09-10 08:47:00,65.1,63.3,30.14,SSE,151,0.0,1.0,94,0.00,,,0.00,meteohub,2013-09-10 12:47:00,
2013-09-10 08:52:00,65.3,63.5,30.14,SSE,151,0.0,1.0,94,0.00,,,0.00,meteohub,2013-09-10 12:52:00,
2013-09-10 08:57:00,65.8,64.4,30.14,SSE,151,0.0,0.0,95,0.00,,,0.00,meteohub,2013-09-10 12:57:00,
2013-09-10 09:02:00,66.6,65.1,30.14,SSE,151,0.0,0.0,95,0.00,,,0.00,meteohub,2013-09-10 13:02:00,
2013-09-10 09:07:00,67.3,65.5,30.14,SSE,151,0.0,0.0,94,0.00,,,0.00,meteohub,2013-09-10 13:07:00,
2013-09-10 09:12:00,67.8,65.7,30.14,SSE,151,0.0,0.0,93,0.00,,,0.00,meteohub,2013-09-10 13:12:00,
2013-09-10 09:17:00,68.5,65.8,30.15,SSE,151,0.0,0.0,91,0.00,,,0.00,meteohub,2013-09-10 13:17:00,
2013-09-10 09:22:00,69.4,66.0,30.15,SSE,151,0.0,1.0,89,0.00,,,0.00,meteohub,2013-09-10 13:22:00,
2013-09-10 09:27:00,70.3,66.6,30.15,SSE,151,0.0,1.0,88,0.00,,,0.00,meteohub,2013-09-10 13:27:00,
2013-09-10 09:32:00,71.2,67.5,30.15,SSE,151,0.0,1.0,88,0.00,,,0.00,meteohub,2013-09-10 13:32:00,
2013-09-10 09:37:00,72.1,67.6,30.15,SSE,151,0.0,1.0,86,0.00,,,0.00,meteohub,2013-09-10 13:37:00,
2013-09-10 09:42:00,73.2,68.4,30.15,SW,214,0.0,0.0,85,0.00,,,0.00,meteohub,2013-09-10 13:42:00,
2013-09-10 09:48:00,73.9,68.2,30.15,SSW,195,0.0,1.0,82,0.00,,,0.00,meteohub,2013-09-10 13:48:00,
2013-09-10 09:54:00,74.5,68.2,30.16,East,92,0.0,1.0,81,0.00,,,0.00,meteohub,2013-09-10 13:54:00,
2013-09-10 10:01:00,74.7,68.7,30.16,ENE,69,0.0,2.0,82,0.00,,,0.00,meteohub,2013-09-10 14:01:00,
2013-09-10 10:07:00,74.7,68.0,30.16,ENE,69,0.0,2.0,80,0.00,,,0.00,meteohub,2013-09-10 14:07:00,
2013-09-10 10:12:00,75.0,68.4,30.16,ENE,69,0.0,1.0,80,0.00,,,0.00,meteohub,2013-09-10 14:12:00,
2013-09-10 10:19:00,75.6,68.9,30.16,NE,47,0.0,1.0,80,0.00,,,0.00,meteohub,2013-09-10 14:19:00,
2013-09-10 10:25:00,76.3,68.9,30.16,SSE,150,0.0,2.0,78,0.00,,,0.00,meteohub,2013-09-10 14:25:00,
2013-09-10 10:31:00,77.0,69.3,30.16,WNW,282,0.0,2.0,77,0.00,,,0.00,meteohub,2013-09-10 14:31:00,
2013-09-10 10:37:00,77.2,69.4,30.16,WNW,284,0.0,2.0,77,0.00,,,0.00,meteohub,2013-09-10 14:37:00,
2013-09-10 10:42:00,77.4,70.3,30.16,SW,236,1.0,2.0,79,0.00,,,0.00,meteohub,2013-09-10 14:42:00,
2013-09-10 10:47:00,77.7,70.3,30.16,SW,216,0.0,1.0,78,0.00,,,0.00,meteohub,2013-09-10 14:47:00,
2013-09-10 10:52:00,78.3,70.5,30.16,South,173,0.0,1.0,77,0.00,,,0.00,meteohub,2013-09-10 14:52:00,
2013-09-10 10:57:00,78.8,70.5,30.16,SW,230,1.0,2.0,76,0.00,,,0.00,meteohub,2013-09-10 14:57:00,
2013-09-10 11:02:00,79.3,70.7,30.16,NNW,333,1.0,2.0,75,0.00,,,0.00,meteohub,2013-09-10 15:02:00,
2013-09-10 11:07:00,79.9,71.6,30.15,NNW,333,0.0,2.0,76,0.00,,,0.00,meteohub,2013-09-10 15:07:00,
2013-09-10 11:12:00,80.6,72.3,30.15,SE,145,0.0,3.0,76,0.00,,,0.00,meteohub,2013-09-10 15:12:00,
2013-09-10 11:17:00,81.5,72.3,30.15,ESE,121,2.0,3.0,74,0.00,,,0.00,meteohub,2013-09-10 15:17:00,
2013-09-10 11:22:00,82.2,73.0,30.15,NW,323,0.0,5.0,74,0.00,,,0.00,meteohub,2013-09-10 15:22:00,
2013-09-10 11:27:00,82.6,71.8,30.15,SSW,204,3.0,5.0,70,0.00,,,0.00,meteohub,2013-09-10 15:27:00,
2013-09-10 11:32:00,83.1,72.0,30.15,SSW,211,0.0,5.0,69,0.00,,,0.00,meteohub,2013-09-10 15:32:00,
2013-09-10 11:37:00,83.5,73.0,30.15,SE,143,2.0,5.0,71,0.00,,,0.00,meteohub,2013-09-10 15:37:00,
2013-09-10 11:42:00,83.8,73.4,30.15,SW,225,1.0,6.0,71,0.00,,,0.00,meteohub,2013-09-10 15:42:00,
2013-09-10 11:47:00,84.4,72.7,30.14,NNW,327,1.0,6.0,68,0.00,,,0.00,meteohub,2013-09-10 15:47:00,
2013-09-10 11:52:00,84.7,73.0,30.14,NW,322,2.0,4.0,68,0.00,,,0.00,meteohub,2013-09-10 15:52:00,
2013-09-10 11:57:00,84.7,73.9,30.14,WNW,302,0.0,4.0,70,0.00,,,0.00,meteohub,2013-09-10 15:57:00,
2013-09-10 12:02:00,84.7,73.0,30.14,WNW,302,1.0,3.0,68,0.00,,,0.00,meteohub,2013-09-10 16:02:00,
2013-09-10 12:07:00,84.9,73.2,30.14,NW,318,0.0,3.0,68,0.00,,,0.00,meteohub,2013-09-10 16:07:00,
2013-09-10 12:12:00,85.5,74.5,30.13,WSW,253,0.0,3.0,70,0.00,,,0.00,meteohub,2013-09-10 16:12:00,
2013-09-10 12:17:00,85.8,72.1,30.13,SSE,157,1.0,4.0,64,0.00,,,0.00,meteohub,2013-09-10 16:17:00,
2013-09-10 12:22:00,86.2,73.0,30.13,NW,313,1.0,5.0,65,0.00,,,0.00,meteohub,2013-09-10 16:22:00,
2013-09-10 12:27:00,86.2,72.1,30.13,SSE,168,0.0,5.0,63,0.00,,,0.00,meteohub,2013-09-10 16:27:00,
2013-09-10 12:32:00,85.8,72.1,30.13,NNW,329,0.0,6.0,64,0.00,,,0.00,meteohub,2013-09-10 16:32:00,
2013-09-10 12:37:00,85.6,73.0,30.13,WNW,296,0.0,6.0,66,0.00,,,0.00,meteohub,2013-09-10 16:37:00,
2013-09-10 12:42:00,86.2,72.1,30.13,ENE,67,4.0,6.0,63,0.00,,,0.00,meteohub,2013-09-10 16:42:00,
2013-09-10 12:47:00,86.4,73.2,30.13,WNW,303,0.0,7.0,65,0.00,,,0.00,meteohub,2013-09-10 16:47:00,
2013-09-10 12:52:00,86.4,73.2,30.13,NW,313,0.0,7.0,65,0.00,,,0.00,meteohub,2013-09-10 16:52:00,
2013-09-10 12:57:00,86.5,73.4,30.13,NNW,335,0.0,7.0,65,0.00,,,0.00,meteohub,2013-09-10 16:57:00,
2013-09-10 13:02:00,86.9,74.1,30.13,NW,313,0.0,3.0,66,0.00,,,0.00,meteohub,2013-09-10 17:02:00,
2013-09-10 13:07:00,86.9,74.1,30.12,WNW,301,0.0,3.0,66,0.00,,,0.00,meteohub,2013-09-10 17:07:00,
2013-09-10 13:12:00,86.4,73.6,30.12,WNW,302,0.0,4.0,66,0.00,,,0.00,meteohub,2013-09-10 17:12:00,
2013-09-10 13:17:00,86.7,73.9,30.12,NW,318,0.0,4.0,66,0.00,,,0.00,meteohub,2013-09-10 17:17:00,
2013-09-10 13:22:00,87.1,73.9,30.12,NNW,337,3.0,4.0,65,0.00,,,0.00,meteohub,2013-09-10 17:22:00,
2013-09-10 13:27:00,87.3,73.6,30.12,WNW,298,1.0,4.0,64,0.00,,,0.00,meteohub,2013-09-10 17:27:00,
2013-09-10 13:32:00,87.4,73.8,30.12,NNE,33,2.0,4.0,64,0.00,,,0.00,meteohub,2013-09-10 17:32:00,
2013-09-10 13:37:00,87.8,73.6,30.12,NW,313,1.0,4.0,63,0.00,,,0.00,meteohub,2013-09-10 17:37:00,
2013-09-10 13:42:00,88.2,73.4,30.12,SE,128,1.0,3.0,62,0.00,,,0.00,meteohub,2013-09-10 17:42:00,
2013-09-10 13:47:00,88.5,74.3,30.11,WNW,300,2.0,3.0,63,0.00,,,0.00,meteohub,2013-09-10 17:47:00,
2013-09-10 13:52:00,88.9,74.1,30.11,NW,320,1.0,6.0,62,0.00,,,0.00,meteohub,2013-09-10 17:52:00,
2013-09-10 13:57:00,88.5,73.4,30.11,SSE,150,2.0,6.0,61,0.00,,,0.00,meteohub,2013-09-10 17:57:00,
2013-09-10 14:02:00,89.1,74.3,30.11,SE,132,1.0,5.0,62,0.00,,,0.00,meteohub,2013-09-10 18:02:00,
2013-09-10 14:08:00,88.9,74.7,30.11,WNW,299,2.0,5.0,63,0.00,,,0.00,meteohub,2013-09-10 18:08:00,
2013-09-10 14:14:00,88.3,74.1,30.11,NW,326,0.0,5.0,63,0.00,,,0.00,meteohub,2013-09-10 18:14:00,
2013-09-10 14:20:00,88.5,74.3,30.10,WNW,302,0.0,4.0,63,0.00,,,0.00,meteohub,2013-09-10 18:20:00,
2013-09-10 14:26:00,88.9,74.7,30.10,NW,315,0.0,3.0,63,0.00,,,0.00,meteohub,2013-09-10 18:26:00,
2013-09-10 14:32:00,89.1,74.3,30.10,NW,311,1.0,3.0,62,0.00,,,0.00,meteohub,2013-09-10 18:32:00,
2013-09-10 14:38:00,89.1,74.3,30.10,NNW,327,1.0,4.0,62,0.00,,,0.00,meteohub,2013-09-10 18:38:00,
2013-09-10 14:44:00,89.1,74.3,30.09,SE,126,0.0,4.0,62,0.00,,,0.00,meteohub,2013-09-10 18:44:00,
2013-09-10 14:50:00,88.9,73.8,30.09,WNW,301,1.0,3.0,61,0.00,,,0.00,meteohub,2013-09-10 18:50:00,
2013-09-10 14:56:00,88.2,73.9,30.09,WNW,300,1.0,3.0,63,0.00,,,0.00,meteohub,2013-09-10 18:56:00,
2013-09-10 15:02:00,88.3,73.6,30.09,SSW,211,0.0,3.0,62,0.00,,,0.00,meteohub,2013-09-10 19:02:00,
2013-09-10 15:08:00,88.9,73.2,30.09,SSE,165,0.0,3.0,60,0.00,,,0.00,meteohub,2013-09-10 19:08:00,
2013-09-10 15:14:00,89.4,74.1,30.09,NW,324,0.0,4.0,61,0.00,,,0.00,meteohub,2013-09-10 19:14:00,
2013-09-10 15:20:00,90.0,74.7,30.08,NW,308,0.0,4.0,61,0.00,,,0.00,meteohub,2013-09-10 19:20:00,
2013-09-10 15:27:00,90.1,74.3,30.08,West,265,0.0,4.0,60,0.00,,,0.00,meteohub,2013-09-10 19:27:00,
2013-09-10 15:32:00,90.5,74.1,30.07,NW,307,1.0,3.0,59,0.00,,,0.00,meteohub,2013-09-10 19:32:00,
2013-09-10 15:37:00,90.3,74.1,30.07,NW,317,1.0,3.0,59,0.00,,,0.00,meteohub,2013-09-10 19:37:00,
2013-09-10 15:42:00,90.7,73.9,30.07,ENE,71,0.0,3.0,58,0.00,,,0.00,meteohub,2013-09-10 19:42:00,
2013-09-10 15:48:00,90.9,74.1,30.07,NW,304,1.0,4.0,58,0.00,,,0.00,meteohub,2013-09-10 19:48:00,
2013-09-10 15:54:00,91.0,74.1,30.07,NW,318,1.0,4.0,58,0.00,,,0.00,meteohub,2013-09-10 19:54:00,
2013-09-10 16:00:00,91.0,74.7,30.07,WNW,300,1.0,3.0,59,0.00,,,0.00,meteohub,2013-09-10 20:00:00,
2013-09-10 16:06:00,90.7,73.4,30.07,NW,306,1.0,3.0,57,0.00,,,0.00,meteohub,2013-09-10 20:06:00,
2013-09-10 16:12:00,90.3,73.6,30.07,WNW,297,0.0,3.0,58,0.00,,,0.00,meteohub,2013-09-10 20:12:00,
2013-09-10 16:17:00,90.7,73.4,30.06,NW,325,2.0,3.0,57,0.00,,,0.00,meteohub,2013-09-10 20:17:00,
2013-09-10 16:22:00,91.2,74.3,30.07,SSW,208,0.0,3.0,58,0.00,,,0.00,meteohub,2013-09-10 20:22:00,
2013-09-10 16:27:00,91.6,73.0,30.06,NNE,22,0.0,3.0,55,0.00,,,0.00,meteohub,2013-09-10 20:27:00,
2013-09-10 16:32:00,91.2,72.9,30.07,ENE,65,0.0,4.0,55,0.00,,,0.00,meteohub,2013-09-10 20:32:00,
2013-09-10 16:37:00,90.7,74.3,30.07,NNW,338,0.0,4.0,59,0.00,,,0.00,meteohub,2013-09-10 20:37:00,
2013-09-10 16:42:00,90.1,73.9,30.07,SSE,152,0.0,4.0,59,0.00,,,0.00,meteohub,2013-09-10 20:42:00,
2013-09-10 16:47:00,90.0,74.7,30.06,South,184,0.0,4.0,61,0.00,,,0.00,meteohub,2013-09-10 20:47:00,
2013-09-10 16:54:00,89.2,73.6,30.06,South,188,0.0,4.0,60,0.00,,,0.00,meteohub,2013-09-10 20:54:00,
2013-09-10 17:00:00,89.1,73.9,30.06,SSW,198,0.0,1.0,61,0.00,,,0.00,meteohub,2013-09-10 21:00:00,
2013-09-10 17:06:00,88.7,73.6,30.06,NW,321,0.0,1.0,61,0.00,,,0.00,meteohub,2013-09-10 21:06:00,
2013-09-10 17:12:00,88.5,73.4,30.06,North,9,0.0,1.0,61,0.00,,,0.00,meteohub,2013-09-10 21:12:00,
2013-09-10 17:17:00,88.5,73.8,30.06,SE,124,0.0,1.0,62,0.00,,,0.00,meteohub,2013-09-10 21:17:00,
2013-09-10 17:22:00,88.7,73.6,30.06,ESE,103,0.0,1.0,61,0.00,,,0.00,meteohub,2013-09-10 21:22:00,
2013-09-10 17:27:00,88.7,73.0,30.06,SE,142,1.0,2.0,60,0.00,,,0.00,meteohub,2013-09-10 21:27:00,
2013-09-10 17:32:00,88.5,73.4,30.06,ESE,116,0.0,4.0,61,0.00,,,0.00,meteohub,2013-09-10 21:32:00,
2013-09-10 17:40:00,88.3,73.6,30.06,SW,235,0.0,4.0,62,0.00,,,0.00,meteohub,2013-09-10 21:40:00,
2013-09-10 17:46:00,88.2,73.0,30.06,East,85,1.0,4.0,61,0.00,,,0.00,meteohub,2013-09-10 21:46:00,
2013-09-10 17:52:00,88.0,73.4,30.06,SE,128,0.0,3.0,62,0.00,,,0.00,meteohub,2013-09-10 21:52:00,
2013-09-10 17:57:00,88.0,73.4,30.06,SE,133,0.0,3.0,62,0.00,,,0.00,meteohub,2013-09-10 21:57:00,
2013-09-10 18:02:00,87.6,73.4,30.06,SSE,167,0.0,2.0,63,0.00,,,0.00,meteohub,2013-09-10 22:02:00,
2013-09-10 18:07:00,87.6,73.4,30.06,SE,143,0.0,2.0,63,0.00,,,0.00,meteohub,2013-09-10 22:07:00,
2013-09-10 18:12:00,87.4,73.2,30.06,SSW,197,0.0,2.0,63,0.00,,,0.00,meteohub,2013-09-10 22:12:00,
2013-09-10 18:17:00,87.3,73.6,30.06,ESE,113,0.0,2.0,64,0.00,,,0.00,meteohub,2013-09-10 22:17:00,
2013-09-10 18:22:00,86.9,73.2,30.06,SSW,195,0.0,2.0,64,0.00,,,0.00,meteohub,2013-09-10 22:22:00,
2013-09-10 18:27:00,86.7,74.5,30.06,SE,132,0.0,2.0,67,0.00,,,0.00,meteohub,2013-09-10 22:27:00,
2013-09-10 18:32:00,86.5,74.7,30.06,SE,124,0.0,2.0,68,0.00,,,0.00,meteohub,2013-09-10 22:32:00,
2013-09-10 18:37:00,86.2,75.2,30.06,SE,124,0.0,2.0,70,0.00,,,0.00,meteohub,2013-09-10 22:37:00,
2013-09-10 18:42:00,85.8,75.4,30.06,SE,124,0.0,1.0,71,0.00,,,0.00,meteohub,2013-09-10 22:42:00,
2013-09-10 18:47:00,85.5,75.4,30.06,SE,124,0.0,1.0,72,0.00,,,0.00,meteohub,2013-09-10 22:47:00,
2013-09-10 18:52:00,84.9,74.8,30.06,SE,124,0.0,0.0,72,0.00,,,0.00,meteohub,2013-09-10 22:52:00,
2013-09-10 18:57:00,84.6,74.5,30.06,SE,124,0.0,0.0,72,0.00,,,0.00,meteohub,2013-09-10 22:57:00,
2013-09-10 19:02:00,84.4,74.3,30.06,SE,124,0.0,0.0,72,0.00,,,0.00,meteohub,2013-09-10 23:02:00,
2013-09-10 19:07:00,83.8,73.8,30.06,SE,124,0.0,0.0,72,0.00,,,0.00,meteohub,2013-09-10 23:07:00,
2013-09-10 19:13:00,83.5,73.9,30.06,SE,124,0.0,0.0,73,0.00,,,0.00,meteohub,2013-09-10 23:13:00,
2013-09-10 19:20:00,83.1,73.2,30.06,SE,124,0.0,0.0,72,0.00,,,0.00,meteohub,2013-09-10 23:20:00,
2013-09-10 19:26:00,82.8,72.9,30.06,SE,124,0.0,0.0,72,0.00,,,0.00,meteohub,2013-09-10 23:26:00,
2013-09-10 19:32:00,82.6,73.0,30.06,SE,124,0.0,1.0,73,0.00,,,0.00,meteohub,2013-09-10 23:32:00,
2013-09-10 19:37:00,82.2,72.3,30.06,SE,124,0.0,1.0,72,0.00,,,0.00,meteohub,2013-09-10 23:37:00,
2013-09-10 19:42:00,82.0,72.1,30.06,SE,124,0.0,0.0,72,0.00,,,0.00,meteohub,2013-09-10 23:42:00,
2013-09-10 19:47:00,81.9,72.3,30.06,SE,124,0.0,0.0,73,0.00,,,0.00,meteohub,2013-09-10 23:47:00,
2013-09-10 19:52:00,81.7,72.1,30.06,SE,124,0.0,0.0,73,0.00,,,0.00,meteohub,2013-09-10 23:52:00,
2013-09-10 19:57:00,81.3,71.8,30.06,SE,124,0.0,0.0,73,0.00,,,0.00,meteohub,2013-09-10 23:57:00,
2013-09-10 20:02:00,81.1,72.1,30.07,SE,124,0.0,0.0,74,0.00,,,0.00,meteohub,2013-09-11 00:02:00,
2013-09-10 20:07:00,80.8,71.8,30.07,ESE,112,0.0,0.0,74,0.00,,,0.00,meteohub,2013-09-11 00:07:00,
2013-09-10 20:12:00,80.8,73.6,30.07,ESE,112,0.0,1.0,79,0.00,,,0.00,meteohub,2013-09-11 00:12:00,
2013-09-10 20:17:00,80.8,73.9,30.07,ESE,112,0.0,1.0,80,0.00,,,0.00,meteohub,2013-09-11 00:17:00,
2013-09-10 20:22:00,80.6,73.4,30.08,ESE,112,0.0,1.0,79,0.00,,,0.00,meteohub,2013-09-11 00:22:00,
2013-09-10 20:27:00,80.4,73.8,30.08,ESE,112,0.0,0.0,80,0.00,,,0.00,meteohub,2013-09-11 00:27:00,
2013-09-10 20:32:00,80.4,74.1,30.08,ESE,112,0.0,0.0,81,0.00,,,0.00,meteohub,2013-09-11 00:32:00,
2013-09-10 20:37:00,80.2,73.9,30.08,ESE,112,0.0,0.0,81,0.00,,,0.00,meteohub,2013-09-11 00:37:00,
2013-09-10 20:42:00,80.2,74.3,30.08,ESE,112,0.0,0.0,82,0.00,,,0.00,meteohub,2013-09-11 00:42:00,
2013-09-10 20:47:00,80.1,73.8,30.09,ESE,105,0.0,1.0,81,0.00,,,0.00,meteohub,2013-09-11 00:47:00,
2013-09-10 20:52:00,79.9,73.9,30.09,ESE,113,0.0,2.0,82,0.00,,,0.00,meteohub,2013-09-11 00:52:00,
2013-09-10 20:57:00,79.5,73.2,30.09,ESE,113,0.0,2.0,81,0.00,,,0.00,meteohub,2013-09-11 00:57:00,
2013-09-10 21:02:00,79.3,72.7,30.09,SE,143,0.0,2.0,80,0.00,,,0.00,meteohub,2013-09-11 01:02:00,
2013-09-10 21:07:00,79.2,72.5,30.09,SE,131,0.0,1.0,80,0.00,,,0.00,meteohub,2013-09-11 01:07:00,
2013-09-10 21:12:00,79.0,72.3,30.09,SE,131,0.0,1.0,80,0.00,,,0.00,meteohub,2013-09-11 01:12:00,
2013-09-10 21:17:00,79.0,72.0,30.09,SE,131,0.0,1.0,79,0.00,,,0.00,meteohub,2013-09-11 01:17:00,
2013-09-10 21:22:00,79.0,72.0,30.10,East,92,0.0,1.0,79,0.00,,,0.00,meteohub,2013-09-11 01:22:00,
2013-09-10 21:27:00,79.3,72.0,30.10,East,93,0.0,2.0,78,0.00,,,0.00,meteohub,2013-09-11 01:27:00,
2013-09-10 21:32:00,79.5,71.6,30.10,East,93,0.0,2.0,77,0.00,,,0.00,meteohub,2013-09-11 01:32:00,
2013-09-10 21:39:00,79.9,72.0,30.10,East,93,0.0,2.0,77,0.00,,,0.00,meteohub,2013-09-11 01:39:00,
2013-09-10 21:45:00,79.7,71.8,30.10,East,93,0.0,0.0,77,0.00,,,0.00,meteohub,2013-09-11 01:45:00,
2013-09-10 21:51:00,79.5,71.6,30.10,East,86,0.0,0.0,77,0.00,,,0.00,meteohub,2013-09-11 01:51:00,
2013-09-10 21:57:00,79.3,72.0,30.10,SE,144,0.0,1.0,78,0.00,,,0.00,meteohub,2013-09-11 01:57:00,
2013-09-10 22:02:00,79.2,72.1,30.11,SE,144,0.0,1.0,79,0.00,,,0.00,meteohub,2013-09-11 02:02:00,
2013-09-10 22:07:00,79.0,72.0,30.11,SE,144,0.0,1.0,79,0.00,,,0.00,meteohub,2013-09-11 02:07:00,
2013-09-10 22:12:00,79.0,72.0,30.11,SE,144,0.0,0.0,79,0.00,,,0.00,meteohub,2013-09-11 02:12:00,
2013-09-10 22:17:00,78.8,72.1,30.11,ESE,110,0.0,1.0,80,0.00,,,0.00,meteohub,2013-09-11 02:17:00,
2013-09-10 22:22:00,78.8,72.1,30.11,SE,130,0.0,2.0,80,0.00,,,0.00,meteohub,2013-09-11 02:22:00,
2013-09-10 22:27:00,78.6,72.0,30.11,SE,136,0.0,2.0,80,0.00,,,0.00,meteohub,2013-09-11 02:27:00,
2013-09-10 22:32:00,78.4,71.8,30.11,SSE,154,0.0,2.0,80,0.00,,,0.00,meteohub,2013-09-11 02:32:00,
2013-09-10 22:37:00,78.4,71.4,30.11,SSE,168,0.0,2.0,79,0.00,,,0.00,meteohub,2013-09-11 02:37:00,
2013-09-10 22:42:00,78.4,71.4,30.12,SSE,166,0.0,1.0,79,0.00,,,0.00,meteohub,2013-09-11 02:42:00,
2013-09-10 22:47:00,78.4,71.8,30.12,SSE,165,0.0,1.0,80,0.00,,,0.00,meteohub,2013-09-11 02:47:00,
2013-09-10 22:52:00,78.3,71.6,30.12,SSE,165,0.0,1.0,80,0.00,,,0.00,meteohub,2013-09-11 02:52:00,
2013-09-10 22:57:00,78.1,71.8,30.12,SSE,165,0.0,1.0,81,0.00,,,0.00,meteohub,2013-09-11 02:57:00,
2013-09-10 23:02:00,77.7,71.4,30.12,SSW,200,0.0,1.0,81,0.00,,,0.00,meteohub,2013-09-11 03:02:00,
2013-09-10 23:07:00,77.5,71.2,30.12,SSW,200,0.0,1.0,81,0.00,,,0.00,meteohub,2013-09-11 03:07:00,
2013-09-10 23:12:00,77.4,71.4,30.12,SSW,200,0.0,0.0,82,0.00,,,0.00,meteohub,2013-09-11 03:12:00,
2013-09-10 23:17:00,77.2,71.2,30.12,South,172,0.0,0.0,82,0.00,,,0.00,meteohub,2013-09-11 03:17:00,
2013-09-10 23:22:00,77.0,71.4,30.12,SSE,167,0.0,0.0,83,0.00,,,0.00,meteohub,2013-09-11 03:22:00,
2013-09-10 23:27:00,76.6,71.1,30.12,SE,142,0.0,0.0,83,0.00,,,0.00,meteohub,2013-09-11 03:27:00,
2013-09-10 23:32:00,76.6,71.4,30.12,SE,146,0.0,0.0,84,0.00,,,0.00,meteohub,2013-09-11 03:32:00,
2013-09-10 23:37:00,76.5,71.2,30.12,SE,146,0.0,0.0,84,0.00,,,0.00,meteohub,2013-09-11 03:37:00,
2013-09-10 23:42:00,76.5,71.2,30.12,SE,136,0.0,0.0,84,0.00,,,0.00,meteohub,2013-09-11 03:42:00,
2013-09-10 23:47:00,76.5,71.2,30.12,South,169,0.0,0.0,84,0.00,,,0.00,meteohub,2013-09-11 03:47:00,
2013-09-10 23:52:00,76.6,71.4,30.12,South,171,0.0,1.0,84,0.00,,,0.00,meteohub,2013-09-11 03:52:00,
2013-09-10 23:57:00,76.8,71.2,30.12,South,174,0.0,2.0,83,0.00,,,0.00,meteohub,2013-09-11 03:57:00,